sensor_id;sensor_type;location;lat;lon;timestamp;pressure;altitude;pressure_sealevel;temperature;humidity
47280;BME280;34064;44.942;0.008;2023-03-25T00:00:11;99187.84;;;13.95;58.44
47280;BME280;34064;44.942;0.008;2023-03-25T00:02:46;99189.81;;;13.93;58.36
47280;BME280;34064;44.942;0.008;2023-03-25T00:05:16;99197.97;;;13.91;58.28
47280;BME280;34064;44.942;0.008;2023-03-25T00:07:46;99198.44;;;13.85;58.38
47280;BME280;34064;44.942;0.008;2023-03-25T00:10:14;99196.75;;;13.84;58.19
47280;BME280;34064;44.942;0.008;2023-03-25T00:12:42;99209.13;;;13.85;58.29
47280;BME280;34064;44.942;0.008;2023-03-25T00:15:11;99205.78;;;13.83;58.48
47280;BME280;34064;44.942;0.008;2023-03-25T00:17:38;99210.88;;;13.75;58.85
47280;BME280;34064;44.942;0.008;2023-03-25T00:20:07;99219.75;;;13.75;58.80
47280;BME280;34064;44.942;0.008;2023-03-25T00:22:36;99222.66;;;13.72;58.83
47280;BME280;34064;44.942;0.008;2023-03-25T00:25:08;99224.75;;;13.68;59.13
47280;BME280;34064;44.942;0.008;2023-03-25T00:27:36;99214.06;;;13.68;59.04
47280;BME280;34064;44.942;0.008;2023-03-25T00:30:04;99213.09;;;13.69;58.88
47280;BME280;34064;44.942;0.008;2023-03-25T00:32:32;99214.06;;;13.68;59.01
47280;BME280;34064;44.942;0.008;2023-03-25T00:34:59;99199.88;;;13.68;59.00
47280;BME280;34064;44.942;0.008;2023-03-25T00:37:26;99203.13;;;13.71;58.92
47280;BME280;34064;44.942;0.008;2023-03-25T00:39:54;99199.75;;;13.69;59.19
47280;BME280;34064;44.942;0.008;2023-03-25T00:42:21;99200.34;;;13.73;58.99
47280;BME280;34064;44.942;0.008;2023-03-25T00:44:54;99198.03;;;13.68;59.45
47280;BME280;34064;44.942;0.008;2023-03-25T00:47:22;99199.75;;;13.69;59.17
47280;BME280;34064;44.942;0.008;2023-03-25T00:49:49;99192.47;;;13.71;59.12
47280;BME280;34064;44.942;0.008;2023-03-25T00:52:16;99191.00;;;13.67;59.39
47280;BME280;34064;44.942;0.008;2023-03-25T00:54:43;99181.44;;;13.65;59.52
47280;BME280;34064;44.942;0.008;2023-03-25T00:57:11;99176.25;;;13.63;59.59
47280;BME280;34064;44.942;0.008;2023-03-25T00:59:37;99186.34;;;13.60;59.57
47280;BME280;34064;44.942;0.008;2023-03-25T01:02:03;99168.47;;;13.60;59.59
47280;BME280;34064;44.942;0.008;2023-03-25T01:04:32;99170.91;;;13.63;59.61
47280;BME280;34064;44.942;0.008;2023-03-25T01:06:59;99164.84;;;13.61;59.69
47280;BME280;34064;44.942;0.008;2023-03-25T01:09:26;99161.94;;;13.64;59.66
47280;BME280;34064;44.942;0.008;2023-03-25T01:11:53;99156.69;;;13.63;59.58
47280;BME280;34064;44.942;0.008;2023-03-25T01:14:21;99153.06;;;13.64;59.72
47280;BME280;34064;44.942;0.008;2023-03-25T01:16:49;99159.50;;;13.61;59.64
47280;BME280;34064;44.942;0.008;2023-03-25T01:19:15;99160.34;;;13.62;59.71
47280;BME280;34064;44.942;0.008;2023-03-25T01:21:42;99156.09;;;13.59;59.53
47280;BME280;34064;44.942;0.008;2023-03-25T01:24:12;99164.50;;;13.54;59.94
47280;BME280;34064;44.942;0.008;2023-03-25T01:26:40;99163.38;;;13.57;59.73
47280;BME280;34064;44.942;0.008;2023-03-25T01:29:09;99164.34;;;13.56;59.93
47280;BME280;34064;44.942;0.008;2023-03-25T01:31:36;99161.69;;;13.56;59.75
47280;BME280;34064;44.942;0.008;2023-03-25T01:34:02;99174.94;;;13.57;59.68
47280;BME280;34064;44.942;0.008;2023-03-25T01:36:28;99179.41;;;13.57;59.67
47280;BME280;34064;44.942;0.008;2023-03-25T01:38:56;99174.94;;;13.57;59.83
47280;BME280;34064;44.942;0.008;2023-03-25T01:41:25;99161.19;;;13.62;59.86
47280;BME280;34064;44.942;0.008;2023-03-25T01:45:02;99153.56;;;13.57;59.75
47280;BME280;34064;44.942;0.008;2023-03-25T01:46:56;99155.28;;;13.59;59.90
47280;BME280;34064;44.942;0.008;2023-03-25T01:49:30;99154.41;;;13.58;59.96
47280;BME280;34064;44.942;0.008;2023-03-25T01:52:13;99158.78;;;13.59;59.78
47280;BME280;34064;44.942;0.008;2023-03-25T01:54:42;99157.22;;;13.56;60.01
47280;BME280;34064;44.942;0.008;2023-03-25T01:57:10;99151.63;;;13.60;59.98
47280;BME280;34064;44.942;0.008;2023-03-25T01:59:38;99145.69;;;13.56;60.13
47280;BME280;34064;44.942;0.008;2023-03-25T02:02:06;99135.72;;;13.58;59.91
47280;BME280;34064;44.942;0.008;2023-03-25T02:07:08;99139.66;;;13.54;59.95
47280;BME280;34064;44.942;0.008;2023-03-25T02:09:36;99143.16;;;13.54;60.07
47280;BME280;34064;44.942;0.008;2023-03-25T02:12:03;99136.97;;;13.54;60.28
47280;BME280;34064;44.942;0.008;2023-03-25T02:14:32;99132.59;;;13.53;60.03
47280;BME280;34064;44.942;0.008;2023-03-25T02:33:53;99147.69;;;13.43;60.29
47280;BME280;34064;44.942;0.008;2023-03-25T02:39:55;99138.19;;;13.38;60.65
47280;BME280;34064;44.942;0.008;2023-03-25T02:42:51;99147.31;;;13.36;60.37
47280;BME280;34064;44.942;0.008;2023-03-25T02:45:28;99159.81;;;13.35;60.43
47280;BME280;34064;44.942;0.008;2023-03-25T02:48:02;99151.81;;;13.35;60.38
47280;BME280;34064;44.942;0.008;2023-03-25T02:50:45;99153.75;;;13.33;60.67
47280;BME280;34064;44.942;0.008;2023-03-25T02:53:26;99151.22;;;13.32;60.71
47280;BME280;34064;44.942;0.008;2023-03-25T02:55:56;99146.00;;;13.30;60.66
47280;BME280;34064;44.942;0.008;2023-03-25T02:58:26;99140.66;;;13.30;60.65
47280;BME280;34064;44.942;0.008;2023-03-25T03:00:55;99142.34;;;13.31;60.42
47280;BME280;34064;44.942;0.008;2023-03-25T03:03:26;99135.31;;;13.30;60.49
47280;BME280;34064;44.942;0.008;2023-03-25T03:05:58;99137.03;;;13.31;60.57
47280;BME280;34064;44.942;0.008;2023-03-25T03:08:37;99143.34;;;13.30;60.51
47280;BME280;34064;44.942;0.008;2023-03-25T03:11:19;99144.88;;;13.33;60.48
47280;BME280;34064;44.942;0.008;2023-03-25T03:16:32;99142.59;;;13.28;60.47
47280;BME280;34064;44.942;0.008;2023-03-25T03:19:19;99138.97;;;13.29;60.63
47280;BME280;34064;44.942;0.008;2023-03-25T03:22:03;99141.03;;;13.25;60.58
47280;BME280;34064;44.942;0.008;2023-03-25T03:30:39;99135.97;;;13.22;60.57
47280;BME280;34064;44.942;0.008;2023-03-25T03:33:18;99144.09;;;13.21;60.75
47280;BME280;34064;44.942;0.008;2023-03-25T03:36:11;99146.91;;;13.19;60.64
47280;BME280;34064;44.942;0.008;2023-03-25T03:38:47;99145.34;;;13.17;60.49
47280;BME280;34064;44.942;0.008;2023-03-25T03:41:20;99141.06;;;13.14;60.63
47280;BME280;34064;44.942;0.008;2023-03-25T03:43:59;99149.22;;;13.13;60.75
47280;BME280;34064;44.942;0.008;2023-03-25T03:46:37;99146.53;;;13.13;60.47
47280;BME280;34064;44.942;0.008;2023-03-25T03:49:10;99149.22;;;13.13;60.45
47280;BME280;34064;44.942;0.008;2023-03-25T03:52:49;99152.97;;;13.10;60.49
47280;BME280;34064;44.942;0.008;2023-03-25T03:55:26;99152.38;;;13.06;60.56
47280;BME280;34064;44.942;0.008;2023-03-25T03:58:01;99148.13;;;13.04;60.55
47280;BME280;34064;44.942;0.008;2023-03-25T04:00:39;99151.91;;;13.01;60.65
47280;BME280;34064;44.942;0.008;2023-03-25T04:03:19;99153.84;;;12.99;60.79
47280;BME280;34064;44.942;0.008;2023-03-25T04:06:05;99150.47;;;12.97;60.85
47280;BME280;34064;44.942;0.008;2023-03-25T04:08:40;99144.41;;;12.95;60.75
47280;BME280;34064;44.942;0.008;2023-03-25T04:11:15;99149.88;;;12.93;60.69
47280;BME280;34064;44.942;0.008;2023-03-25T04:13:46;99148.28;;;12.91;60.89
47280;BME280;34064;44.942;0.008;2023-03-25T04:16:14;99151.22;;;12.88;60.63
47280;BME280;34064;44.942;0.008;2023-03-25T04:18:41;99150.63;;;12.84;60.85
47280;BME280;34064;44.942;0.008;2023-03-25T04:21:09;99148.78;;;12.85;60.75
47280;BME280;34064;44.942;0.008;2023-03-25T04:23:35;99142.50;;;12.86;60.88
47280;BME280;34064;44.942;0.008;2023-03-25T04:26:03;99146.13;;;12.85;60.85
47280;BME280;34064;44.942;0.008;2023-03-25T04:28:30;99159.31;;;12.86;60.66
47280;BME280;34064;44.942;0.008;2023-03-25T04:30:56;99165.03;;;12.82;61.09
47280;BME280;34064;44.942;0.008;2023-03-25T04:33:25;99165.88;;;12.82;60.96
47280;BME280;34064;44.942;0.008;2023-03-25T04:35:57;99173.28;;;12.78;61.01
47280;BME280;34064;44.942;0.008;2023-03-25T04:38:26;99174.13;;;12.79;60.97
47280;BME280;34064;44.942;0.008;2023-03-25T04:40:53;99170.84;;;12.75;60.96
47280;BME280;34064;44.942;0.008;2023-03-25T04:43:19;99181.75;;;12.72;60.94
47280;BME280;34064;44.942;0.008;2023-03-25T04:45:46;99183.81;;;12.69;61.10
47280;BME280;34064;44.942;0.008;2023-03-25T04:48:25;99190.25;;;12.66;61.21
47280;BME280;34064;44.942;0.008;2023-03-25T04:50:58;99184.19;;;12.64;61.43
47280;BME280;34064;44.942;0.008;2023-03-25T04:53:27;99193.28;;;12.61;61.43
47280;BME280;34064;44.942;0.008;2023-03-25T04:55:54;99190.47;;;12.63;61.34
47280;BME280;34064;44.942;0.008;2023-03-25T04:58:21;99195.09;;;12.61;61.57
47280;BME280;34064;44.942;0.008;2023-03-25T05:00:49;99203.09;;;12.61;61.91
47280;BME280;34064;44.942;0.008;2023-03-25T05:03:17;99202.22;;;12.60;61.72
47280;BME280;34064;44.942;0.008;2023-03-25T05:05:49;99202.22;;;12.60;61.84
47280;BME280;34064;44.942;0.008;2023-03-25T05:08:16;99204.16;;;12.58;61.93
47280;BME280;34064;44.942;0.008;2023-03-25T05:10:43;99215.78;;;12.57;62.16
47280;BME280;34064;44.942;0.008;2023-03-25T05:13:10;99215.69;;;12.59;62.05
47280;BME280;34064;44.942;0.008;2023-03-25T05:15:37;99212.28;;;12.57;62.01
47280;BME280;34064;44.942;0.008;2023-03-25T05:18:12;99222.13;;;12.56;61.88
47280;BME280;34064;44.942;0.008;2023-03-25T05:20:45;99211.47;;;12.56;61.86
47280;BME280;34064;44.942;0.008;2023-03-25T05:23:16;99214.34;;;12.53;62.28
47280;BME280;34064;44.942;0.008;2023-03-25T05:25:47;99215.91;;;12.56;62.29
47280;BME280;34064;44.942;0.008;2023-03-25T05:28:14;99221.47;;;12.53;62.41
47280;BME280;34064;44.942;0.008;2023-03-25T05:30:42;99216.16;;;12.53;62.56
47280;BME280;34064;44.942;0.008;2023-03-25T05:33:12;99231.31;;;12.52;62.52
47280;BME280;34064;44.942;0.008;2023-03-25T05:35:40;99225.09;;;12.52;62.28
47280;BME280;34064;44.942;0.008;2023-03-25T05:38:08;99221.47;;;12.53;62.30
47280;BME280;34064;44.942;0.008;2023-03-25T05:40:37;99211.69;;;12.53;62.15
47280;BME280;34064;44.942;0.008;2023-03-25T05:43:07;99224.16;;;12.53;62.29
47280;BME280;34064;44.942;0.008;2023-03-25T05:45:34;99215.31;;;12.52;62.34
47280;BME280;34064;44.942;0.008;2023-03-25T05:48:02;99211.19;;;12.48;62.79
47280;BME280;34064;44.942;0.008;2023-03-25T05:50:31;99212.03;;;12.48;62.62
47280;BME280;34064;44.942;0.008;2023-03-25T05:52:58;99211.78;;;12.52;62.53
47280;BME280;34064;44.942;0.008;2023-03-25T05:55:27;99214.22;;;12.55;62.51
47280;BME280;34064;44.942;0.008;2023-03-25T05:57:54;99222.44;;;12.52;62.59
47280;BME280;34064;44.942;0.008;2023-03-25T06:00:23;99205.75;;;12.50;62.80
47280;BME280;34064;44.942;0.008;2023-03-25T06:02:50;99192.06;;;12.54;62.47
47280;BME280;34064;44.942;0.008;2023-03-25T06:05:18;99196.53;;;12.54;62.45
47280;BME280;34064;44.942;0.008;2023-03-25T06:07:49;99192.06;;;12.54;62.47
47280;BME280;34064;44.942;0.008;2023-03-25T06:10:18;99204.44;;;12.55;62.72
47280;BME280;34064;44.942;0.008;2023-03-25T06:12:46;99194.38;;;12.59;62.38
47280;BME280;34064;44.942;0.008;2023-03-25T06:15:16;99196.78;;;12.62;62.63
47280;BME280;34064;44.942;0.008;2023-03-25T06:18:09;99204.53;;;12.65;62.70
47280;BME280;34064;44.942;0.008;2023-03-25T06:20:36;99199.44;;;12.73;62.54
47280;BME280;34064;44.942;0.008;2023-03-25T06:23:02;99199.22;;;12.76;62.59
47280;BME280;34064;44.942;0.008;2023-03-25T06:25:29;99202.59;;;12.78;62.61
47280;BME280;34064;44.942;0.008;2023-03-25T06:27:56;99200.41;;;12.84;62.62
47280;BME280;34064;44.942;0.008;2023-03-25T06:30:26;99195.81;;;12.86;62.44
47280;BME280;34064;44.942;0.008;2023-03-25T06:32:53;99203.06;;;12.84;62.68
47280;BME280;34064;44.942;0.008;2023-03-25T06:35:20;99205.25;;;12.90;62.35
47280;BME280;34064;44.942;0.008;2023-03-25T06:37:48;99208.78;;;12.90;63.12
47280;BME280;34064;44.942;0.008;2023-03-25T06:40:15;99201.84;;;12.99;62.59
47280;BME280;34064;44.942;0.008;2023-03-25T06:42:42;99199.91;;;13.01;62.79
47280;BME280;34064;44.942;0.008;2023-03-25T06:45:09;99197.97;;;13.03;62.79
47280;BME280;34064;44.942;0.008;2023-03-25T06:47:35;99199.16;;;13.10;62.44
47280;BME280;34064;44.942;0.008;2023-03-25T06:50:01;99199.75;;;13.14;62.63
47280;BME280;34064;44.942;0.008;2023-03-25T06:52:28;99198.41;;;13.20;62.42
47280;BME280;34064;44.942;0.008;2023-03-25T06:54:54;99195.63;;;13.21;62.67
47280;BME280;34064;44.942;0.008;2023-03-25T06:57:21;99196.22;;;13.25;62.37
47280;BME280;34064;44.942;0.008;2023-03-25T06:59:47;99192.47;;;13.27;62.28
47280;BME280;34064;44.942;0.008;2023-03-25T07:02:14;99199.94;;;13.34;62.32
47280;BME280;34064;44.942;0.008;2023-03-25T07:04:41;99192.31;;;13.40;62.33
47280;BME280;34064;44.942;0.008;2023-03-25T07:07:08;99189.41;;;13.44;62.23
47280;BME280;34064;44.942;0.008;2023-03-25T07:09:34;99193.41;;;13.49;62.22
47280;BME280;34064;44.942;0.008;2023-03-25T07:12:01;99190.94;;;13.57;62.19
47280;BME280;34064;44.942;0.008;2023-03-25T07:14:28;99191.00;;;13.67;62.10
47280;BME280;34064;44.942;0.008;2023-03-25T07:16:54;99195.59;;;13.77;62.40
47280;BME280;34064;44.942;0.008;2023-03-25T07:19:21;99193.38;;;13.82;62.44
47280;BME280;34064;44.942;0.008;2023-03-25T07:21:47;99193.84;;;13.87;62.26
47280;BME280;34064;44.942;0.008;2023-03-25T07:24:14;99191.25;;;13.97;62.23
47280;BME280;34064;44.942;0.008;2023-03-25T07:26:40;99179.66;;;14.08;62.27
47280;BME280;34064;44.942;0.008;2023-03-25T07:29:06;99162.09;;;14.15;62.09
47280;BME280;34064;44.942;0.008;2023-03-25T07:31:33;99166.63;;;14.14;62.24
47280;BME280;34064;44.942;0.008;2023-03-25T07:33:59;99170.69;;;14.18;61.96
47280;BME280;34064;44.942;0.008;2023-03-25T07:36:27;99173.94;;;14.22;62.02
47280;BME280;34064;44.942;0.008;2023-03-25T07:38:54;99171.28;;;14.22;61.77
47280;BME280;34064;44.942;0.008;2023-03-25T07:41:20;99178.22;;;14.25;61.79
47280;BME280;34064;44.942;0.008;2023-03-25T07:43:46;99179.50;;;14.30;61.63
47280;BME280;34064;44.942;0.008;2023-03-25T07:46:13;99166.31;;;14.39;61.59
47280;BME280;34064;44.942;0.008;2023-03-25T07:48:39;99153.84;;;14.49;61.49
47280;BME280;34064;44.942;0.008;2023-03-25T07:51:06;99146.44;;;14.62;61.38
47280;BME280;34064;44.942;0.008;2023-03-25T07:53:34;99142.97;;;14.72;61.36
47280;BME280;34064;44.942;0.008;2023-03-25T07:56:04;99152.28;;;14.77;60.97
47280;BME280;34064;44.942;0.008;2023-03-25T07:58:31;99147.50;;;14.81;60.92
47280;BME280;34064;44.942;0.008;2023-03-25T08:00:57;99140.63;;;14.88;60.90
47280;BME280;34064;44.942;0.008;2023-03-25T08:03:24;99149.81;;;14.95;61.09
47280;BME280;34064;44.942;0.008;2023-03-25T08:05:50;99141.94;;;15.04;60.75
47280;BME280;34064;44.942;0.008;2023-03-25T08:08:17;99145.75;;;15.11;60.85
47280;BME280;34064;44.942;0.008;2023-03-25T08:10:44;99143.66;;;15.24;60.47
47280;BME280;34064;44.942;0.008;2023-03-25T08:13:12;99143.38;;;15.27;60.40
47280;BME280;34064;44.942;0.008;2023-03-25T08:15:39;99136.19;;;15.38;60.34
47280;BME280;34064;44.942;0.008;2023-03-25T08:18:06;99140.72;;;15.37;60.29
47280;BME280;34064;44.942;0.008;2023-03-25T08:20:35;99134.63;;;15.45;60.40
47280;BME280;34064;44.942;0.008;2023-03-25T08:23:02;99117.19;;;15.60;60.28
47280;BME280;34064;44.942;0.008;2023-03-25T08:25:29;99115.03;;;15.74;60.09
47280;BME280;34064;44.942;0.008;2023-03-25T08:27:56;99121.66;;;15.80;59.92
47280;BME280;34064;44.942;0.008;2023-03-25T08:30:23;99110.53;;;15.84;59.60
47280;BME280;34064;44.942;0.008;2023-03-25T08:32:49;99117.16;;;16.00;59.36
47280;BME280;34064;44.942;0.008;2023-03-25T08:35:21;99111.91;;;16.08;59.25
47280;BME280;34064;44.942;0.008;2023-03-25T08:37:49;99106.66;;;16.16;58.98
47280;BME280;34064;44.942;0.008;2023-03-25T08:40:15;99102.41;;;16.24;59.01
47280;BME280;34064;44.942;0.008;2023-03-25T08:42:45;99100.81;;;16.31;58.94
47280;BME280;34064;44.942;0.008;2023-03-25T08:45:12;99104.34;;;16.31;59.08
47280;BME280;34064;44.942;0.008;2023-03-25T08:47:40;99109.97;;;16.38;58.67
47280;BME280;34064;44.942;0.008;2023-03-25T08:50:07;99117.16;;;16.37;58.57
47280;BME280;34064;44.942;0.008;2023-03-25T08:52:34;99115.28;;;16.48;58.32
47280;BME280;34064;44.942;0.008;2023-03-25T08:55:01;99109.09;;;16.47;58.24
47280;BME280;34064;44.942;0.008;2023-03-25T08:57:27;99125.19;;;16.47;58.70
47280;BME280;34064;44.942;0.008;2023-03-25T08:59:53;99128.66;;;16.58;58.28
47280;BME280;34064;44.942;0.008;2023-03-25T09:02:20;99121.84;;;16.63;57.43
47280;BME280;34064;44.942;0.008;2023-03-25T09:04:49;99119.81;;;16.75;57.07
47280;BME280;34064;44.942;0.008;2023-03-25T09:07:16;99114.53;;;16.83;57.02
47280;BME280;34064;44.942;0.008;2023-03-25T09:09:45;99105.72;;;17.01;56.97
47280;BME280;34064;44.942;0.008;2023-03-25T09:12:11;99105.50;;;17.12;55.99
47280;BME280;34064;44.942;0.008;2023-03-25T09:14:38;99097.13;;;17.15;56.13
47280;BME280;34064;44.942;0.008;2023-03-25T09:17:04;99078.34;;;17.34;55.18
47280;BME280;34064;44.942;0.008;2023-03-25T09:19:33;99068.88;;;17.48;54.70
47280;BME280;34064;44.942;0.008;2023-03-25T09:22:00;99067.13;;;17.56;54.17
47280;BME280;34064;44.942;0.008;2023-03-25T09:24:26;99070.38;;;17.68;53.62
47280;BME280;34064;44.942;0.008;2023-03-25T09:26:52;99059.75;;;17.85;53.57
47280;BME280;34064;44.942;0.008;2023-03-25T09:29:19;99059.50;;;17.96;53.38
47280;BME280;34064;44.942;0.008;2023-03-25T09:31:45;99062.94;;;18.06;53.49
47280;BME280;34064;44.942;0.008;2023-03-25T09:34:12;99070.00;;;18.07;53.22
47280;BME280;34064;44.942;0.008;2023-03-25T09:36:38;99053.38;;;18.12;52.29
47280;BME280;34064;44.942;0.008;2023-03-25T09:39:04;99053.53;;;18.11;52.61
47280;BME280;34064;44.942;0.008;2023-03-25T09:41:45;99037.53;;;18.35;52.51
47280;BME280;34064;44.942;0.008;2023-03-25T09:44:20;99035.88;;;18.43;51.43
47280;BME280;34064;44.942;0.008;2023-03-25T09:46:47;99039.88;;;18.38;50.92
47280;BME280;34064;44.942;0.008;2023-03-25T09:49:19;99052.13;;;18.33;50.87
47280;BME280;34064;44.942;0.008;2023-03-25T09:51:49;99045.75;;;18.42;50.63
47280;BME280;34064;44.942;0.008;2023-03-25T09:54:31;99041.63;;;18.56;50.43
47280;BME280;34064;44.942;0.008;2023-03-25T09:57:13;99036.94;;;18.66;49.40
47280;BME280;34064;44.942;0.008;2023-03-25T09:59:45;99022.00;;;18.80;49.24
47280;BME280;34064;44.942;0.008;2023-03-25T10:07:52;99018.88;;;19.10;47.95
47280;BME280;34064;44.942;0.008;2023-03-25T10:13:34;99003.72;;;19.33;48.25
47280;BME280;34064;44.942;0.008;2023-03-25T10:24:27;99009.13;;;19.25;47.83
47280;BME280;34064;44.942;0.008;2023-03-25T10:30:22;99005.59;;;19.16;47.55
47280;BME280;34064;44.942;0.008;2023-03-25T10:35:08;99012.50;;;19.11;47.72
47280;BME280;34064;44.942;0.008;2023-03-25T10:37:38;99008.94;;;19.02;47.54
47280;BME280;34064;44.942;0.008;2023-03-25T10:40:21;99023.22;;;18.94;47.22
47280;BME280;34064;44.942;0.008;2023-03-25T10:43:12;99019.03;;;19.08;47.50
47280;BME280;34064;44.942;0.008;2023-03-25T10:45:43;99009.81;;;19.19;48.26
47280;BME280;34064;44.942;0.008;2023-03-25T10:48:27;99008.44;;;19.48;47.84
47280;BME280;34064;44.942;0.008;2023-03-25T10:51:01;98995.28;;;19.53;47.61
47280;BME280;34064;44.942;0.008;2023-03-25T10:53:29;98985.88;;;19.57;47.54
47280;BME280;34064;44.942;0.008;2023-03-25T10:56:03;99003.03;;;19.56;47.04
47280;BME280;34064;44.942;0.008;2023-03-25T10:58:33;99004.56;;;19.42;47.96
47280;BME280;34064;44.942;0.008;2023-03-25T11:01:14;99012.81;;;19.32;47.81
47280;BME280;34064;44.942;0.008;2023-03-25T11:03:42;99013.00;;;19.31;47.35
47280;BME280;34064;44.942;0.008;2023-03-25T11:09:04;99017.38;;;19.32;47.08
47280;BME280;34064;44.942;0.008;2023-03-25T11:11:35;99006.09;;;19.45;46.85
47280;BME280;34064;44.942;0.008;2023-03-25T11:14:03;99004.88;;;19.56;47.28
47280;BME280;34064;44.942;0.008;2023-03-25T11:16:55;99005.03;;;19.62;46.67
47280;BME280;34064;44.942;0.008;2023-03-25T11:20:03;99005.03;;;19.62;46.49
47280;BME280;34064;44.942;0.008;2023-03-25T11:22:35;98997.97;;;19.61;46.56
47280;BME280;34064;44.942;0.008;2023-03-25T11:25:34;98990.56;;;19.63;46.52
47280;BME280;34064;44.942;0.008;2023-03-25T11:28:08;98989.88;;;19.70;46.76
47280;BME280;34064;44.942;0.008;2023-03-25T11:30:36;98972.34;;;19.74;46.07
47280;BME280;34064;44.942;0.008;2023-03-25T11:33:13;98951.94;;;19.79;46.20
47280;BME280;34064;44.942;0.008;2023-03-25T11:35:43;98946.84;;;20.01;46.05
47280;BME280;34064;44.942;0.008;2023-03-25T11:38:28;98940.75;;;20.39;45.29
47280;BME280;34064;44.942;0.008;2023-03-25T11:40:58;98942.44;;;20.40;44.82
47280;BME280;34064;44.942;0.008;2023-03-25T11:43:30;98946.69;;;20.34;44.40
47280;BME280;34064;44.942;0.008;2023-03-25T11:46:06;98961.38;;;20.32;45.10
47280;BME280;34064;44.942;0.008;2023-03-25T11:48:36;98952.25;;;20.33;44.87
47280;BME280;34064;44.942;0.008;2023-03-25T11:51:13;98941.81;;;20.30;44.83
47280;BME280;34064;44.942;0.008;2023-03-25T11:53:46;98930.31;;;20.36;44.96
47280;BME280;34064;44.942;0.008;2023-03-25T11:56:19;98928.19;;;20.54;44.24
47280;BME280;34064;44.942;0.008;2023-03-25T11:58:47;98917.69;;;20.60;44.12
47280;BME280;34064;44.942;0.008;2023-03-25T12:01:37;98909.84;;;20.73;43.46
47280;BME280;34064;44.942;0.008;2023-03-25T12:04:20;98900.63;;;20.91;43.26
47280;BME280;34064;44.942;0.008;2023-03-25T12:06:59;98895.88;;;21.08;43.52
47280;BME280;34064;44.942;0.008;2023-03-25T12:09:28;98890.97;;;21.26;42.33
47280;BME280;34064;44.942;0.008;2023-03-25T12:15:31;98893.22;;;21.38;42.50
47280;BME280;34064;44.942;0.008;2023-03-25T12:23:40;98903.56;;;21.19;41.82
47280;BME280;34064;44.942;0.008;2023-03-25T12:26:38;98906.81;;;21.14;42.35
47280;BME280;34064;44.942;0.008;2023-03-25T12:34:39;98866.97;;;21.46;41.70
47280;BME280;34064;44.942;0.008;2023-03-25T12:37:39;98844.81;;;21.66;41.89
47280;BME280;34064;44.942;0.008;2023-03-25T12:43:10;98828.44;;;21.89;40.79
47280;BME280;34064;44.942;0.008;2023-03-25T12:46:15;98825.25;;;22.22;39.92
47280;BME280;34064;44.942;0.008;2023-03-25T12:49:19;98812.03;;;22.34;39.49
47280;BME280;34064;44.942;0.008;2023-03-25T12:51:56;98815.28;;;22.44;39.65
47280;BME280;34064;44.942;0.008;2023-03-25T12:54:48;98820.31;;;22.48;39.57
47280;BME280;34064;44.942;0.008;2023-03-25T13:00:29;98816.69;;;22.19;39.53
47280;BME280;34064;44.942;0.008;2023-03-25T13:06:19;98812.03;;;21.91;39.68
47280;BME280;34064;44.942;0.008;2023-03-25T13:11:32;98799.28;;;21.85;40.41
47280;BME280;34064;44.942;0.008;2023-03-25T13:14:06;98785.03;;;21.76;40.70
47280;BME280;34064;44.942;0.008;2023-03-25T13:16:37;98792.50;;;21.74;40.99
47280;BME280;34064;44.942;0.008;2023-03-25T13:19:24;98798.09;;;21.57;41.17
47280;BME280;34064;44.942;0.008;2023-03-25T13:21:56;98799.69;;;21.51;41.45
47280;BME280;34064;44.942;0.008;2023-03-25T13:24:48;98795.50;;;21.49;41.37
47280;BME280;34064;44.942;0.008;2023-03-25T13:27:17;98798.00;;;21.50;41.58
47280;BME280;34064;44.942;0.008;2023-03-25T13:29:54;98781.34;;;21.62;41.32
47280;BME280;34064;44.942;0.008;2023-03-25T13:32:40;98781.69;;;21.59;41.31
47280;BME280;34064;44.942;0.008;2023-03-25T13:35:43;98780.09;;;21.49;40.58
47280;BME280;34064;44.942;0.008;2023-03-25T13:38:48;98779.50;;;21.32;40.84
47280;BME280;34064;44.942;0.008;2023-03-25T13:41:45;98779.50;;;21.32;40.38
47280;BME280;34064;44.942;0.008;2023-03-25T13:44:30;98790.97;;;21.19;40.83
47280;BME280;34064;44.942;0.008;2023-03-25T13:49:40;98777.22;;;21.51;41.06
47280;BME280;34064;44.942;0.008;2023-03-25T13:52:08;98769.66;;;21.76;40.90
47280;BME280;34064;44.942;0.008;2023-03-25T13:54:47;98757.16;;;21.97;40.30
47280;BME280;34064;44.942;0.008;2023-03-25T14:11:23;98696.13;;;22.09;40.13
47280;BME280;34064;44.942;0.008;2023-03-25T14:14:00;98689.34;;;22.20;40.28
47280;BME280;34064;44.942;0.008;2023-03-25T14:16:41;98691.09;;;22.28;39.12
47280;BME280;34064;44.942;0.008;2023-03-25T14:19:18;98690.94;;;22.36;39.29
47280;BME280;34064;44.942;0.008;2023-03-25T14:21:50;98690.81;;;22.44;38.99
47280;BME280;34064;44.942;0.008;2023-03-25T14:24:31;98688.75;;;22.47;38.03
47280;BME280;34064;44.942;0.008;2023-03-25T14:27:05;98701.66;;;22.23;38.37
47280;BME280;34064;44.942;0.008;2023-03-25T14:29:41;98719.66;;;22.09;39.03
47280;BME280;34064;44.942;0.008;2023-03-25T14:34:41;98710.44;;;22.03;39.13
47280;BME280;34064;44.942;0.008;2023-03-25T14:42:03;98693.00;;;22.06;39.30
47280;BME280;34064;44.942;0.008;2023-03-25T14:44:43;98676.69;;;21.99;39.26
47280;BME280;34064;44.942;0.008;2023-03-25T14:52:44;98671.91;;;22.23;39.57
47280;BME280;34064;44.942;0.008;2023-03-25T14:55:30;98681.50;;;22.25;39.26
47280;BME280;34064;44.942;0.008;2023-03-25T14:58:06;98681.06;;;22.22;38.94
47280;BME280;34064;44.942;0.008;2023-03-25T15:00:43;98682.53;;;22.24;39.02
47280;BME280;34064;44.942;0.008;2023-03-25T15:03:16;98681.94;;;22.29;39.62
47280;BME280;34064;44.942;0.008;2023-03-25T15:05:51;98669.50;;;22.35;39.60
47280;BME280;34064;44.942;0.008;2023-03-25T15:08:55;98670.72;;;22.32;39.10
47280;BME280;34064;44.942;0.008;2023-03-25T15:11:31;98683.25;;;22.11;38.88
47280;BME280;34064;44.942;0.008;2023-03-25T15:14:04;98693.72;;;21.93;39.56
47280;BME280;34064;44.942;0.008;2023-03-25T15:16:57;98696.03;;;21.74;39.64
47280;BME280;34064;44.942;0.008;2023-03-25T15:19:24;98701.09;;;21.62;39.80